Terminal Aerodrome Forecast
Issued by NWS

Home | Current Version | Previous Version | Graphics & Text | Print | Product List | Glossary Off
Versions: 1 2 3 4 5 6 7 8 9 10 11 12 13 14 15 16 17 18 19 20 21 22 23 24 25 26 27 28 29 30 31 32 33 34 35 36 37 38 39 40 41 42 43

000
FTUS43 KDDC 171741 RRA
TAFHYS
TAF
KHYS 171741Z 1718/1818 14010KT P6SM BKN015
     FM172300 12010G20KT P6SM VCTS BKN090CB
     FM180600 12005KT P6SM OVC050 PROB30 1806/1810 P6SM TS BKN050CB
     FM181000 13004KT P6SM OVC050=

USA.gov is the U.S. government's official web portal to all federal, state and local government web resources and services.